Time;durP1;ratioP1;P1;durP2;ratioP2;P2;SDS_P1;SDS_P2;PMS_P1;PMS_P2;Temp;Humidity;BMP_temperature;BMP_pressure;BME280_temperature;BME280_humidity;BME280_pressure;Samples;Min_cycle;Max_cycle;Signal;HPM_P1;HPM_P2
2023/06/28 00:01:38;;;;;;;11.07;4.80;;;14.10;89.20;;;;;;4976176;28;20189;-89
2023/06/28 00:04:05;;;;;;;17.73;4.93;;;14.10;89.10;;;;;;4976028;28;20209;-90
2023/06/28 00:06:31;;;;;;;8.27;4.67;;;14.10;89.10;;;;;;4976549;28;20190;-90
2023/06/28 00:08:58;;;;;;;11.87;4.83;;;14.00;89.00;;;;;;4976095;28;20190;-90
2023/06/28 00:11:25;;;;;;;12.37;4.33;;;14.00;89.00;;;;;;4976216;28;20277;-89
2023/06/28 00:13:51;;;;;;;9.60;4.97;;;14.00;89.10;;;;;;4975921;28;20204;-90
2023/06/28 00:16:17;;;;;;;10.07;4.40;;;14.00;89.10;;;;;;4976264;28;20277;-89
2023/06/28 00:18:45;;;;;;;9.53;4.70;;;14.00;89.10;;;;;;4975892;28;20221;-89
2023/06/28 00:21:14;;;;;;;16.27;4.63;;;13.90;89.30;;;;;;4975860;28;20187;-90
2023/06/28 00:23:40;;;;;;;12.03;4.63;;;13.90;89.40;;;;;;4975668;28;20245;-88
2023/06/28 00:26:06;;;;;;;12.43;4.97;;;13.90;89.40;;;;;;4976015;28;20532;-89
2023/06/28 00:28:31;;;;;;;12.23;4.87;;;13.90;89.40;;;;;;4975976;28;20198;-88
2023/06/28 00:30:57;;;;;;;13.23;4.57;;;13.90;89.40;;;;;;4975668;28;20183;-89
2023/06/28 00:33:22;;;;;;;10.77;4.80;;;13.80;89.40;;;;;;4975588;28;20583;-88
2023/06/28 00:35:48;;;;;;;14.33;4.90;;;13.80;89.40;;;;;;4975580;28;20213;-88
2023/06/28 00:38:14;;;;;;;17.47;5.03;;;13.80;89.50;;;;;;4975550;28;20556;-89
2023/06/28 00:40:40;;;;;;;14.70;4.90;;;13.80;89.40;;;;;;4976759;28;20181;-88
2023/06/28 00:43:05;;;;;;;7.13;4.60;;;13.80;89.40;;;;;;4975388;28;20199;-88
2023/06/28 00:45:31;;;;;;;15.83;5.30;;;13.80;89.50;;;;;;4975611;28;20243;-88
2023/06/28 00:47:56;;;;;;;17.50;5.07;;;13.80;89.40;;;;;;4976607;28;20190;-88
2023/06/28 00:50:22;;;;;;;14.10;6.17;;;13.70;89.70;;;;;;4976611;28;20178;-88
2023/06/28 00:52:48;;;;;;;11.50;5.13;;;13.80;89.90;;;;;;4975251;28;20226;-88
2023/06/28 00:55:14;;;;;;;10.20;4.37;;;13.80;90.00;;;;;;4975566;28;20182;-88
2023/06/28 00:57:40;;;;;;;15.60;5.00;;;13.70;89.80;;;;;;4976433;28;20175;-88
2023/06/28 01:00:11;;;;;;;20.03;5.03;;;13.70;89.90;;;;;;4975172;28;20179;-88
2023/06/28 01:02:41;;;;;;;9.87;5.20;;;13.80;90.00;;;;;;4975097;28;20217;-88
2023/06/28 01:05:09;;;;;;;13.90;5.07;;;13.70;89.90;;;;;;4976583;28;20253;-88
2023/06/28 01:07:36;;;;;;;16.73;5.00;;;13.70;89.90;;;;;;4975162;28;20730;-88
2023/06/28 01:10:03;;;;;;;11.03;5.50;;;13.70;90.00;;;;;;4975003;28;20639;-88
2023/06/28 01:12:29;;;;;;;15.30;5.50;;;13.70;90.10;;;;;;4975950;28;20616;-88
2023/06/28 01:14:55;;;;;;;17.67;5.40;;;13.70;90.00;;;;;;4974875;28;20186;-88
2023/06/28 01:17:20;;;;;;;11.40;4.93;;;13.70;90.20;;;;;;4974881;28;20556;-88
2023/06/28 01:19:46;;;;;;;16.63;5.43;;;13.70;90.30;;;;;;4976162;28;20182;-88
2023/06/28 01:22:13;;;;;;;13.80;5.20;;;13.60;90.30;;;;;;4974688;28;20281;-89
2023/06/28 01:24:40;;;;;;;14.33;4.80;;;13.60;90.50;;;;;;4974750;28;20179;-88
2023/06/28 01:27:09;;;;;;;10.50;5.17;;;13.60;90.70;;;;;;4974873;28;20183;-88
2023/06/28 01:29:36;;;;;;;12.57;5.37;;;13.60;90.90;;;;;;4975957;28;20225;-88
2023/06/28 01:32:04;;;;;;;11.00;5.10;;;13.60;91.10;;;;;;4974494;28;20682;-88
2023/06/28 01:34:29;;;;;;;17.67;5.60;;;13.60;91.20;;;;;;4977402;28;20681;-88
2023/06/28 01:36:59;;;;;;;13.77;6.10;;;13.60;91.20;;;;;;4977380;28;20179;-88
2023/06/28 01:39:25;;;;;;;19.87;5.83;;;13.70;91.30;;;;;;4977611;28;20206;-88
2023/06/28 01:41:53;;;;;;;10.70;5.37;;;13.60;91.20;;;;;;4977740;28;20248;-88
2023/06/28 01:44:19;;;;;;;13.70;5.87;;;13.60;91.30;;;;;;4977054;28;20205;-88
2023/06/28 01:46:45;;;;;;;16.83;6.07;;;13.70;91.50;;;;;;4977219;28;20186;-88
2023/06/28 01:49:11;;;;;;;15.30;7.30;;;13.60;91.50;;;;;;4976636;28;20179;-88
2023/06/28 01:51:39;;;;;;;16.00;5.97;;;13.60;91.70;;;;;;4976563;28;20198;-88
2023/06/28 01:54:04;;;;;;;18.10;6.00;;;13.60;91.60;;;;;;4976980;28;20217;-88
2023/06/28 01:56:30;;;;;;;9.50;5.57;;;13.60;91.60;;;;;;4979009;28;20269;-88
2023/06/28 01:58:56;;;;;;;10.53;5.77;;;13.60;91.60;;;;;;4976473;28;20713;-88
2023/06/28 02:01:22;;;;;;;21.00;6.50;;;13.60;91.60;;;;;;4976727;28;20213;-88
2023/06/28 02:03:47;;;;;;;13.20;6.20;;;13.50;91.70;;;;;;4976067;28;20219;-88
2023/06/28 02:06:14;;;;;;;10.50;6.40;;;13.50;91.80;;;;;;4976485;28;20576;-88
2023/06/28 02:08:40;;;;;;;19.80;7.40;;;13.50;92.00;;;;;;4977095;28;20193;-88
2023/06/28 02:11:05;;;;;;;16.93;7.10;;;13.50;92.10;;;;;;4975423;28;20186;-88
2023/06/28 02:13:31;;;;;;;15.03;6.57;;;13.50;92.20;;;;;;4975659;28;20693;-87
2023/06/28 02:15:56;;;;;;;14.27;6.37;;;13.50;92.20;;;;;;4976899;28;20174;-87
2023/06/28 02:18:24;;;;;;;17.40;6.93;;;13.50;92.30;;;;;;4975492;28;20210;-87
2023/06/28 02:20:51;;;;;;;15.77;7.37;;;13.40;92.20;;;;;;4975420;28;20178;-88
2023/06/28 02:23:17;;;;;;;25.33;7.63;;;13.40;92.30;;;;;;4975803;28;20199;-87
2023/06/28 02:25:42;;;;;;;23.37;7.27;;;13.40;92.30;;;;;;4975942;28;20210;-88
2023/06/28 02:28:08;;;;;;;17.77;6.53;;;13.40;92.30;;;;;;4976654;28;20179;-87
2023/06/28 02:30:33;;;;;;;11.63;6.67;;;13.30;92.30;;;;;;4975783;28;20182;-88
2023/06/28 02:32:59;;;;;;;16.43;7.93;;;13.30;92.30;;;;;;4976166;28;20221;-88
2023/06/28 02:35:24;;;;;;;15.23;7.27;;;13.30;92.30;;;;;;4975722;28;20184;-88
2023/06/28 02:37:50;;;;;;;13.73;6.43;;;13.20;92.20;;;;;;4977427;28;20598;-88
2023/06/28 02:40:15;;;;;;;16.47;7.40;;;13.20;92.40;;;;;;4976130;28;20265;-88
2023/06/28 02:42:41;;;;;;;11.73;6.80;;;13.20;92.40;;;;;;4975810;28;20338;-87
2023/06/28 02:45:07;;;;;;;21.87;7.13;;;13.20;92.40;;;;;;4975057;28;20229;-88
2023/06/28 02:47:32;;;;;;;16.60;6.60;;;13.20;92.50;;;;;;4974753;28;20175;-87
2023/06/28 02:49:58;;;;;;;17.30;7.13;;;13.20;92.60;;;;;;4974766;28;20182;-87
2023/06/28 02:52:23;;;;;;;20.33;7.40;;;13.20;92.50;;;;;;4975225;28;20609;-88
2023/06/28 02:54:49;;;;;;;16.00;6.80;;;13.20;92.60;;;;;;4975785;28;20175;-88
2023/06/28 02:57:14;;;;;;;17.93;7.57;;;13.20;92.60;;;;;;4977077;28;20171;-87
2023/06/28 02:59:40;;;;;;;14.37;7.10;;;13.20;92.70;;;;;;4975622;28;20185;-88
2023/06/28 03:02:05;;;;;;;22.93;8.07;;;13.30;92.80;;;;;;4975754;28;20702;-88
2023/06/28 03:04:32;;;;;;;20.43;8.63;;;13.30;92.80;;;;;;4975949;28;20618;-87
2023/06/28 03:06:58;;;;;;;18.07;8.10;;;13.40;92.90;;;;;;4974995;28;20697;-87
2023/06/28 03:09:24;;;;;;;20.53;8.20;;;13.40;93.00;;;;;;4974748;28;20201;-88
2023/06/28 03:11:50;;;;;;;16.77;9.00;;;13.40;93.00;;;;;;4974796;28;20242;-88
2023/06/28 03:14:15;;;;;;;24.63;9.10;;;13.50;93.00;;;;;;4974275;28;20191;-87
2023/06/28 03:16:41;;;;;;;15.60;8.93;;;13.50;93.10;;;;;;4974423;28;20642;-88
2023/06/28 03:19:08;;;;;;;16.83;9.50;;;13.60;93.10;;;;;;4977140;28;20179;-88
2023/06/28 03:21:33;;;;;;;15.00;8.90;;;13.70;93.00;;;;;;4978781;28;20180;-88
2023/06/28 03:23:59;;;;;;;22.47;9.17;;;13.70;93.00;;;;;;4979998;28;20733;-88
2023/06/28 03:26:25;;;;;;;18.23;9.27;;;13.70;92.90;;;;;;4979119;28;20226;-88
2023/06/28 03:28:50;;;;;;;17.40;9.37;;;13.70;92.80;;;;;;4979408;28;20210;-88
2023/06/28 03:31:16;;;;;;;18.23;9.27;;;13.70;92.80;;;;;;4979214;28;20659;-88
2023/06/28 03:33:41;;;;;;;20.27;9.97;;;13.70;92.80;;;;;;4979164;28;20198;-88
2023/06/28 03:36:07;;;;;;;18.40;10.03;;;13.80;92.90;;;;;;4979946;28;20224;-88
2023/06/28 03:38:33;;;;;;;18.17;9.60;;;13.70;92.90;;;;;;4978823;28;20595;-88
2023/06/28 03:40:58;;;;;;;19.17;9.83;;;13.70;92.90;;;;;;4978920;28;20179;-88
2023/06/28 03:43:24;;;;;;;18.93;10.00;;;13.70;93.00;;;;;;4979599;28;20281;-88
2023/06/28 03:45:49;;;;;;;21.77;9.37;;;13.80;93.00;;;;;;4978791;28;20179;-88
2023/06/28 03:48:15;;;;;;;19.23;9.17;;;14.00;93.00;;;;;;4978629;28;20564;-88
2023/06/28 03:50:40;;;;;;;22.63;9.57;;;14.10;92.90;;;;;;4979251;28;20202;-88
2023/06/28 03:53:06;;;;;;;18.37;8.43;;;14.00;92.50;;;;;;4978814;28;20720;-88
2023/06/28 03:55:31;;;;;;;15.07;9.00;;;14.10;92.50;;;;;;4978330;28;20606;-88
2023/06/28 03:57:57;;;;;;;13.70;9.43;;;14.00;92.50;;;;;;4979301;28;20646;-88
2023/06/28 04:00:22;;;;;;;24.80;9.80;;;14.00;92.60;;;;;;4978109;28;20187;-88
2023/06/28 04:02:48;;;;;;;13.50;9.23;;;14.00;92.60;;;;;;4979281;28;20237;-88
2023/06/28 04:05:14;;;;;;;17.83;9.47;;;14.10;92.50;;;;;;4978717;28;20179;-88
2023/06/28 04:07:39;;;;;;;16.53;8.60;;;14.00;92.60;;;;;;4978645;28;20557;-88
2023/06/28 04:10:05;;;;;;;16.67;8.93;;;14.00;92.70;;;;;;4978673;28;20258;-87
2023/06/28 04:12:31;;;;;;;21.03;9.67;;;14.00;92.80;;;;;;4977753;28;20265;-88
2023/06/28 04:14:57;;;;;;;22.87;10.40;;;14.00;92.90;;;;;;4978379;28;20646;-88
2023/06/28 04:17:22;;;;;;;19.60;9.93;;;14.10;92.90;;;;;;4978119;28;20171;-88
2023/06/28 04:19:48;;;;;;;20.23;10.03;;;14.10;92.80;;;;;;4977295;28;20242;-86
2023/06/28 04:22:13;;;;;;;25.07;9.37;;;14.10;92.80;;;;;;4976702;28;20277;-88
2023/06/28 04:24:39;;;;;;;22.60;9.30;;;14.10;92.90;;;;;;4978234;28;20560;-88
2023/06/28 04:27:04;;;;;;;17.80;9.90;;;14.10;92.90;;;;;;4978202;28;20214;-88
2023/06/28 04:29:30;;;;;;;16.50;9.83;;;14.10;93.10;;;;;;4979031;28;20654;-88
2023/06/28 04:32:02;;;;;;;24.30;10.40;;;14.10;93.20;;;;;;4978197;28;20215;-88
2023/06/28 04:34:28;;;;;;;23.37;10.13;;;14.20;93.20;;;;;;4978436;28;20210;-89
2023/06/28 04:36:57;;;;;;;18.17;8.70;;;14.20;93.30;;;;;;4977703;28;20236;-88
2023/06/28 04:39:22;;;;;;;21.30;9.27;;;14.30;93.40;;;;;;4976969;28;20187;-88
2023/06/28 04:41:48;;;;;;;28.23;10.37;;;14.30;93.40;;;;;;4978810;28;20187;-88
2023/06/28 04:44:14;;;;;;;22.07;10.07;;;14.30;93.40;;;;;;4977187;28;20204;-88
2023/06/28 04:46:44;;;;;;;20.90;9.37;;;14.30;93.50;;;;;;4978060;28;20261;-88
2023/06/28 04:49:10;;;;;;;16.67;8.80;;;14.40;93.40;;;;;;4977774;28;20176;-88
2023/06/28 04:51:35;;;;;;;20.53;8.47;;;14.40;93.30;;;;;;4976929;28;20207;-88
2023/06/28 04:54:01;;;;;;;19.97;9.23;;;14.50;93.30;;;;;;4977201;28;20244;-88
2023/06/28 04:56:28;;;;;;;17.23;8.60;;;14.60;93.40;;;;;;4976945;28;20178;-88
2023/06/28 04:58:53;;;;;;;21.87;9.60;;;14.60;93.30;;;;;;4978989;28;20173;-88
2023/06/28 05:01:19;;;;;;;19.35;10.48;;;14.60;93.30;;;;;;4976947;28;20175;-88
2023/06/28 05:03:47;;;;;;;19.13;9.03;;;14.60;93.30;;;;;;4976970;28;20595;-89
2023/06/28 05:06:13;;;;;;;22.50;8.80;;;14.70;93.30;;;;;;4977630;28;20175;-89
2023/06/28 05:08:38;;;;;;;12.93;8.73;;;14.80;93.20;;;;;;4977109;28;20175;-88
2023/06/28 05:11:04;;;;;;;14.90;8.47;;;14.80;93.20;;;;;;4978884;28;20189;-88
2023/06/28 05:13:30;;;;;;;23.17;9.43;;;14.80;93.00;;;;;;4976434;28;20771;-88
2023/06/28 05:15:55;;;;;;;14.93;8.75;;;14.80;93.00;;;;;;4977553;28;20210;-88
2023/06/28 05:18:21;;;;;;;20.50;8.85;;;15.00;93.10;;;;;;4976555;28;20682;-88
2023/06/28 05:20:46;;;;;;;23.73;9.50;;;14.90;93.00;;;;;;4977296;28;20583;-88
2023/06/28 05:23:13;;;;;;;13.32;8.65;;;15.00;93.00;;;;;;4978037;28;20194;-88
2023/06/28 05:25:40;;;;;;;15.40;8.70;;;15.10;92.80;;;;;;4977388;28;20643;-88
2023/06/28 05:28:06;;;;;;;26.23;9.80;;;15.10;92.60;;;;;;4976683;28;20233;-88
2023/06/28 05:30:32;;;;;;;16.57;8.43;;;15.20;92.70;;;;;;4977470;28;20615;-88
2023/06/28 05:33:02;;;;;;;15.43;8.70;;;15.30;92.80;;;;;;4975483;28;20313;-87
2023/06/28 05:35:32;;;;;;;18.00;8.70;;;15.40;92.80;;;;;;4975276;28;20594;-87
2023/06/28 05:37:59;;;;;;;15.30;8.85;;;15.60;92.70;;;;;;4975253;28;20193;-87
2023/06/28 05:40:26;;;;;;;18.73;8.60;;;15.70;92.70;;;;;;4976200;28;20695;-87
2023/06/28 05:42:53;;;;;;;16.02;7.88;;;15.70;92.40;;;;;;4974528;28;20199;-89
2023/06/28 05:45:20;;;;;;;20.65;8.55;;;15.80;92.30;;;;;;4976031;28;20226;-88
2023/06/28 05:47:45;;;;;;;16.50;8.32;;;15.80;91.90;;;;;;4974428;28;20179;-86
2023/06/28 05:50:11;;;;;;;21.10;8.55;;;15.80;91.70;;;;;;4974318;28;20668;-86
2023/06/28 05:52:37;;;;;;;26.08;9.25;;;15.90;91.70;;;;;;4974873;28;20215;-87
2023/06/28 05:55:02;;;;;;;16.20;7.88;;;16.10;91.80;;;;;;4974519;28;20658;-87
2023/06/28 05:57:28;;;;;;;21.45;9.15;;;16.20;91.70;;;;;;4975686;28;20532;-87
2023/06/28 05:59:53;;;;;;;15.30;7.55;;;16.20;91.40;;;;;;4974904;28;20229;-87
2023/06/28 06:02:19;;;;;;;19.80;7.50;;;16.30;91.50;;;;;;4974516;28;20190;-86
2023/06/28 06:04:44;;;;;;;16.60;7.68;;;16.30;91.10;;;;;;4974601;28;20232;-87
2023/06/28 06:07:10;;;;;;;20.55;8.02;;;16.40;90.90;;;;;;4974400;28;20215;-86
2023/06/28 06:09:35;;;;;;;18.58;8.13;;;16.50;90.90;;;;;;4974464;28;20221;-87
2023/06/28 06:12:01;;;;;;;12.73;7.45;;;16.50;90.90;;;;;;4974314;28;20252;-87
2023/06/28 06:14:26;;;;;;;14.77;7.25;;;16.50;90.40;;;;;;4975423;28;20595;-87
2023/06/28 06:16:54;;;;;;;21.05;8.50;;;16.40;90.20;;;;;;4974221;28;20669;-86
2023/06/28 06:19:19;;;;;;;10.80;6.55;;;16.50;90.20;;;;;;4974750;28;20261;-87
2023/06/28 06:21:45;;;;;;;16.55;7.82;;;16.70;90.20;;;;;;4976386;28;20221;-87
2023/06/28 06:24:10;;;;;;;17.40;8.25;;;16.80;90.00;;;;;;4974645;28;20240;-87
2023/06/28 06:26:36;;;;;;;18.67;9.05;;;16.70;89.50;;;;;;4974547;28;20650;-87
2023/06/28 06:29:02;;;;;;;20.75;9.15;;;16.80;89.30;;;;;;4974179;28;20182;-87
2023/06/28 06:31:29;;;;;;;19.30;8.32;;;16.80;89.10;;;;;;4975493;28;20175;-87
2023/06/28 06:34:00;;;;;;;17.20;6.93;;;16.80;89.00;;;;;;4974083;28;20195;-87
2023/06/28 06:36:27;;;;;;;18.75;7.50;;;16.90;88.30;;;;;;4974030;28;20170;-87
2023/06/28 06:38:53;;;;;;;13.65;6.95;;;16.90;88.30;;;;;;4974900;28;20174;-87
2023/06/28 06:41:19;;;;;;;11.82;7.13;;;17.10;88.20;;;;;;4974824;28;20182;-87
2023/06/28 06:43:44;;;;;;;15.93;6.65;;;17.20;87.80;;;;;;4974108;28;20686;-87
2023/06/28 06:46:10;;;;;;;16.45;7.82;;;17.30;88.30;;;;;;4974880;28;20654;-86
2023/06/28 06:48:37;;;;;;;18.88;8.60;;;17.30;88.10;;;;;;4975096;28;20203;-87
2023/06/28 06:51:04;;;;;;;13.13;7.53;;;17.20;87.70;;;;;;4973572;28;20171;-87
2023/06/28 06:53:29;;;;;;;12.52;7.88;;;17.40;88.20;;;;;;4973678;28;20277;-87
2023/06/28 06:55:55;;;;;;;15.43;8.63;;;17.40;87.10;;;;;;4976552;28;20174;-87
2023/06/28 06:58:21;;;;;;;17.95;8.18;;;17.50;87.70;;;;;;4975068;28;20179;-87
2023/06/28 07:00:47;;;;;;;15.65;7.97;;;17.50;87.50;;;;;;4973473;28;20171;-87
2023/06/28 07:03:12;;;;;;;14.13;7.60;;;17.70;88.10;;;;;;4973605;28;20198;-87
2023/06/28 07:05:38;;;;;;;16.63;8.20;;;17.70;87.20;;;;;;4975763;28;20692;-88
2023/06/28 07:08:03;;;;;;;16.45;8.40;;;17.60;86.40;;;;;;4974491;28;20285;-86
2023/06/28 07:10:29;;;;;;;16.90;8.38;;;17.80;86.50;;;;;;4974124;28;20572;-87
2023/06/28 07:12:54;;;;;;;19.40;8.10;;;18.00;85.90;;;;;;4974364;28;20248;-87
2023/06/28 07:15:20;;;;;;;16.55;7.85;;;17.80;85.60;;;;;;4975762;28;20181;-87
2023/06/28 07:17:46;;;;;;;15.18;8.15;;;17.70;85.50;;;;;;4976743;28;20222;-88
2023/06/28 07:20:11;;;;;;;14.70;8.50;;;17.60;86.20;;;;;;4974442;28;20181;-86
2023/06/28 07:22:37;;;;;;;10.00;6.72;;;17.40;85.70;;;;;;4973449;28;20674;-86
2023/06/28 07:25:04;;;;;;;13.80;7.53;;;17.60;86.10;;;;;;4974056;28;20197;-87
2023/06/28 07:27:30;;;;;;;14.93;8.30;;;17.50;86.00;;;;;;4975642;28;20175;-87
2023/06/28 07:29:56;;;;;;;15.38;8.75;;;17.60;85.90;;;;;;4975777;28;20179;-87
2023/06/28 07:32:21;;;;;;;16.13;7.85;;;17.80;85.50;;;;;;4976788;28;20318;-87
2023/06/28 07:34:47;;;;;;;15.73;7.82;;;17.90;85.00;;;;;;4975289;28;20186;-88
2023/06/28 07:37:12;;;;;;;12.40;7.63;;;18.10;84.90;;;;;;4976144;28;20202;-88
2023/06/28 07:39:38;;;;;;;13.40;8.77;;;18.30;85.10;;;;;;4978096;28;20207;-89
2023/06/28 07:42:04;;;;;;;18.27;9.20;;;18.30;84.50;;;;;;4976217;28;20553;-88
2023/06/28 07:44:29;;;;;;;15.02;9.48;;;18.20;83.80;;;;;;4977696;28;20705;-88
2023/06/28 07:46:55;;;;;;;12.50;8.73;;;18.40;82.50;;;;;;4977344;28;20179;-88
2023/06/28 07:49:20;;;;;;;13.35;9.60;;;18.30;82.90;;;;;;4976268;28;20208;-88
2023/06/28 07:51:46;;;;;;;14.57;8.48;;;18.30;82.60;;;;;;4976552;28;20202;-88
2023/06/28 07:54:11;;;;;;;14.32;8.80;;;18.30;83.50;;;;;;4976523;28;20689;-88
2023/06/28 07:56:37;;;;;;;13.82;8.77;;;18.00;83.20;;;;;;4978452;28;20179;-88
2023/06/28 07:59:05;;;;;;;16.85;9.32;;;18.00;83.00;;;;;;4976837;28;20182;-89
2023/06/28 08:01:33;;;;;;;14.90;9.70;;;18.00;83.00;;;;;;4975324;28;20239;-88
2023/06/28 08:03:59;;;;;;;12.30;8.93;;;18.00;83.30;;;;;;4977453;28;20195;-88
2023/06/28 08:06:25;;;;;;;16.77;8.68;;;18.30;83.30;;;;;;4979096;28;20183;-88
2023/06/28 08:08:50;;;;;;;12.60;8.50;;;18.70;83.80;;;;;;4978511;28;20185;-88
2023/06/28 08:11:16;;;;;;;18.67;10.00;;;18.90;83.10;;;;;;4977223;28;20305;-88
2023/06/28 08:13:41;;;;;;;10.68;8.38;;;18.90;81.80;;;;;;4976722;28;20230;-88
2023/06/28 08:16:07;;;;;;;17.23;9.75;;;19.20;81.50;;;;;;4979024;28;20187;-88
2023/06/28 08:18:34;;;;;;;10.63;8.43;;;19.10;79.60;;;;;;4978044;28;20167;-88
2023/06/28 23:18:07;;;;;;;13.15;8.48;;;19.10;82.10;;;;;;5027079;28;20153;-91
2023/06/28 23:41:23;;;;;;;9.30;8.32;;;18.70;84.10;;;;;;5020424;28;20173;-89
2023/06/28 23:47:10;;;;;;;12.88;8.13;;;18.70;84.30;;;;;;5020814;28;20162;-89
2023/06/28 23:49:36;;;;;;;11.35;8.45;;;18.70;84.40;;;;;;5002439;28;20173;-89
2023/06/28 23:52:02;;;;;;;12.55;9.05;;;18.70;84.40;;;;;;5002512;28;20184;-88
2023/06/28 23:54:27;;;;;;;11.75;8.93;;;18.60;84.10;;;;;;5002752;28;20231;-88
2023/06/28 23:56:53;;;;;;;9.93;8.93;;;18.60;84.20;;;;;;5003323;28;20546;-88
2023/06/28 23:59:18;;;;;;;12.73;8.57;;;18.60;84.50;;;;;;5003546;28;20268;-88
